sensor_id;sensor_type;location;lat;lon;timestamp;P1;durP1;ratioP1;P2;durP2;ratioP2
28848;SDS011;15981;43.292;-2.888;2023-03-14T00:01:20;3.08;;;1.70;;
28848;SDS011;15981;43.292;-2.888;2023-03-14T00:03:46;3.53;;;1.60;;
28848;SDS011;15981;43.292;-2.888;2023-03-14T00:06:12;3.72;;;1.88;;
28848;SDS011;15981;43.292;-2.888;2023-03-14T00:08:38;6.10;;;1.70;;
28848;SDS011;15981;43.292;-2.888;2023-03-14T00:11:07;3.70;;;1.80;;
28848;SDS011;15981;43.292;-2.888;2023-03-14T00:13:34;4.32;;;1.77;;
28848;SDS011;15981;43.292;-2.888;2023-03-14T00:16:06;3.40;;;1.63;;
28848;SDS011;15981;43.292;-2.888;2023-03-14T00:18:32;4.23;;;2.17;;
28848;SDS011;15981;43.292;-2.888;2023-03-14T00:20:58;3.70;;;1.60;;
28848;SDS011;15981;43.292;-2.888;2023-03-14T00:23:24;4.90;;;1.90;;
28848;SDS011;15981;43.292;-2.888;2023-03-14T00:25:50;2.92;;;1.52;;
28848;SDS011;15981;43.292;-2.888;2023-03-14T00:28:16;3.70;;;1.43;;
28848;SDS011;15981;43.292;-2.888;2023-03-14T00:30:42;2.97;;;1.50;;
28848;SDS011;15981;43.292;-2.888;2023-03-14T00:33:07;2.93;;;1.60;;
28848;SDS011;15981;43.292;-2.888;2023-03-14T00:35:33;2.45;;;1.25;;
28848;SDS011;15981;43.292;-2.888;2023-03-14T00:37:59;3.33;;;1.73;;
28848;SDS011;15981;43.292;-2.888;2023-03-14T00:40:24;4.10;;;1.60;;
28848;SDS011;15981;43.292;-2.888;2023-03-14T00:42:50;3.55;;;1.45;;
28848;SDS011;15981;43.292;-2.888;2023-03-14T00:45:16;4.40;;;1.83;;
28848;SDS011;15981;43.292;-2.888;2023-03-14T00:47:41;3.67;;;1.48;;
28848;SDS011;15981;43.292;-2.888;2023-03-14T00:50:11;3.47;;;1.50;;
28848;SDS011;15981;43.292;-2.888;2023-03-14T00:52:37;4.85;;;1.60;;
28848;SDS011;15981;43.292;-2.888;2023-03-14T00:55:03;3.67;;;1.60;;
28848;SDS011;15981;43.292;-2.888;2023-03-14T00:57:28;4.07;;;1.45;;
28848;SDS011;15981;43.292;-2.888;2023-03-14T00:59:54;2.43;;;1.20;;
28848;SDS011;15981;43.292;-2.888;2023-03-14T01:02:20;1.90;;;1.20;;
28848;SDS011;15981;43.292;-2.888;2023-03-14T01:04:47;2.63;;;1.23;;
28848;SDS011;15981;43.292;-2.888;2023-03-14T01:07:13;3.17;;;1.45;;
28848;SDS011;15981;43.292;-2.888;2023-03-14T01:09:38;3.07;;;1.30;;
28848;SDS011;15981;43.292;-2.888;2023-03-14T01:12:04;3.33;;;1.40;;
28848;SDS011;15981;43.292;-2.888;2023-03-14T01:14:30;2.75;;;1.70;;
28848;SDS011;15981;43.292;-2.888;2023-03-14T01:16:56;4.10;;;1.63;;
28848;SDS011;15981;43.292;-2.888;2023-03-14T01:19:26;4.80;;;2.05;;
28848;SDS011;15981;43.292;-2.888;2023-03-14T01:21:52;3.72;;;2.00;;
28848;SDS011;15981;43.292;-2.888;2023-03-14T01:24:18;4.93;;;1.63;;
28848;SDS011;15981;43.292;-2.888;2023-03-14T01:26:44;4.17;;;2.07;;
28848;SDS011;15981;43.292;-2.888;2023-03-14T01:29:09;4.28;;;2.00;;
28848;SDS011;15981;43.292;-2.888;2023-03-14T01:31:35;3.20;;;1.30;;
28848;SDS011;15981;43.292;-2.888;2023-03-14T01:34:01;4.72;;;1.80;;
28848;SDS011;15981;43.292;-2.888;2023-03-14T01:36:27;3.83;;;1.55;;
28848;SDS011;15981;43.292;-2.888;2023-03-14T01:38:52;5.72;;;2.05;;
28848;SDS011;15981;43.292;-2.888;2023-03-14T01:41:19;3.47;;;1.40;;
28848;SDS011;15981;43.292;-2.888;2023-03-14T01:43:46;5.55;;;1.95;;
28848;SDS011;15981;43.292;-2.888;2023-03-14T01:46:22;5.10;;;2.03;;
28848;SDS011;15981;43.292;-2.888;2023-03-14T01:48:53;4.67;;;2.00;;
28848;SDS011;15981;43.292;-2.888;2023-03-14T01:53:58;5.75;;;1.80;;
28848;SDS011;15981;43.292;-2.888;2023-03-14T01:56:25;4.20;;;1.90;;
28848;SDS011;15981;43.292;-2.888;2023-03-14T01:58:51;5.30;;;1.83;;
28848;SDS011;15981;43.292;-2.888;2023-03-14T02:01:18;3.72;;;1.75;;
28848;SDS011;15981;43.292;-2.888;2023-03-14T02:03:47;3.93;;;1.60;;
28848;SDS011;15981;43.292;-2.888;2023-03-14T02:06:14;5.47;;;2.25;;
28848;SDS011;15981;43.292;-2.888;2023-03-14T02:08:40;4.00;;;1.63;;
28848;SDS011;15981;43.292;-2.888;2023-03-14T02:11:06;3.72;;;1.70;;
28848;SDS011;15981;43.292;-2.888;2023-03-14T02:13:32;4.03;;;1.73;;
28848;SDS011;15981;43.292;-2.888;2023-03-14T02:15:58;3.20;;;1.30;;
28848;SDS011;15981;43.292;-2.888;2023-03-14T02:18:24;3.10;;;1.40;;
28848;SDS011;15981;43.292;-2.888;2023-03-14T02:26:13;4.05;;;1.60;;
28848;SDS011;15981;43.292;-2.888;2023-03-14T02:28:41;3.88;;;1.60;;
28848;SDS011;15981;43.292;-2.888;2023-03-14T02:31:07;4.65;;;1.60;;
28848;SDS011;15981;43.292;-2.888;2023-03-14T02:33:34;2.90;;;1.52;;
28848;SDS011;15981;43.292;-2.888;2023-03-14T02:36:07;3.50;;;1.33;;
28848;SDS011;15981;43.292;-2.888;2023-03-14T02:38:40;3.60;;;1.50;;
28848;SDS011;15981;43.292;-2.888;2023-03-14T02:41:07;4.55;;;1.77;;
28848;SDS011;15981;43.292;-2.888;2023-03-14T02:43:33;5.35;;;1.40;;
28848;SDS011;15981;43.292;-2.888;2023-03-14T02:45:59;2.87;;;1.50;;
28848;SDS011;15981;43.292;-2.888;2023-03-14T02:48:26;5.03;;;1.67;;
28848;SDS011;15981;43.292;-2.888;2023-03-14T02:50:54;3.95;;;1.40;;
28848;SDS011;15981;43.292;-2.888;2023-03-14T02:53:21;3.60;;;1.30;;
28848;SDS011;15981;43.292;-2.888;2023-03-14T02:55:49;3.63;;;1.58;;
28848;SDS011;15981;43.292;-2.888;2023-03-14T02:58:15;4.88;;;1.77;;
28848;SDS011;15981;43.292;-2.888;2023-03-14T03:00:41;4.68;;;1.75;;
28848;SDS011;15981;43.292;-2.888;2023-03-14T03:03:06;2.60;;;1.57;;
28848;SDS011;15981;43.292;-2.888;2023-03-14T03:05:32;6.70;;;1.80;;
28848;SDS011;15981;43.292;-2.888;2023-03-14T03:07:58;5.30;;;1.35;;
28848;SDS011;15981;43.292;-2.888;2023-03-14T03:10:24;3.00;;;1.10;;
28848;SDS011;15981;43.292;-2.888;2023-03-14T03:12:50;6.50;;;1.88;;
28848;SDS011;15981;43.292;-2.888;2023-03-14T03:15:17;5.20;;;1.88;;
28848;SDS011;15981;43.292;-2.888;2023-03-14T03:17:42;4.57;;;1.70;;
28848;SDS011;15981;43.292;-2.888;2023-03-14T03:20:08;3.72;;;1.58;;
28848;SDS011;15981;43.292;-2.888;2023-03-14T03:22:35;3.53;;;1.30;;
28848;SDS011;15981;43.292;-2.888;2023-03-14T03:25:02;2.58;;;1.23;;
28848;SDS011;15981;43.292;-2.888;2023-03-14T03:27:29;4.60;;;1.52;;
28848;SDS011;15981;43.292;-2.888;2023-03-14T03:29:55;4.82;;;1.50;;
28848;SDS011;15981;43.292;-2.888;2023-03-14T03:32:20;3.97;;;1.70;;
28848;SDS011;15981;43.292;-2.888;2023-03-14T03:34:46;4.13;;;2.00;;
28848;SDS011;15981;43.292;-2.888;2023-03-14T03:37:12;5.30;;;2.00;;
28848;SDS011;15981;43.292;-2.888;2023-03-14T03:39:38;5.13;;;1.75;;
28848;SDS011;15981;43.292;-2.888;2023-03-14T03:42:03;4.67;;;1.80;;
28848;SDS011;15981;43.292;-2.888;2023-03-14T03:44:29;3.40;;;1.57;;
28848;SDS011;15981;43.292;-2.888;2023-03-14T03:46:55;3.13;;;1.45;;
28848;SDS011;15981;43.292;-2.888;2023-03-14T03:49:20;5.37;;;1.80;;
28848;SDS011;15981;43.292;-2.888;2023-03-14T03:51:46;3.55;;;1.20;;
28848;SDS011;15981;43.292;-2.888;2023-03-14T03:54:12;4.97;;;2.00;;
28848;SDS011;15981;43.292;-2.888;2023-03-14T03:56:38;7.35;;;2.08;;
28848;SDS011;15981;43.292;-2.888;2023-03-14T03:59:03;5.53;;;1.77;;
28848;SDS011;15981;43.292;-2.888;2023-03-14T04:01:29;5.05;;;1.75;;
28848;SDS011;15981;43.292;-2.888;2023-03-14T04:03:55;4.50;;;1.60;;
28848;SDS011;15981;43.292;-2.888;2023-03-14T04:06:21;6.47;;;2.17;;
28848;SDS011;15981;43.292;-2.888;2023-03-14T04:08:46;3.43;;;1.63;;
28848;SDS011;15981;43.292;-2.888;2023-03-14T04:11:12;4.55;;;1.70;;
28848;SDS011;15981;43.292;-2.888;2023-03-14T04:13:38;6.32;;;2.53;;
28848;SDS011;15981;43.292;-2.888;2023-03-14T04:16:09;5.35;;;1.63;;
28848;SDS011;15981;43.292;-2.888;2023-03-14T04:18:35;5.07;;;1.77;;
28848;SDS011;15981;43.292;-2.888;2023-03-14T04:21:01;5.53;;;2.05;;
28848;SDS011;15981;43.292;-2.888;2023-03-14T04:23:27;6.43;;;1.73;;
28848;SDS011;15981;43.292;-2.888;2023-03-14T04:25:53;5.07;;;1.85;;
28848;SDS011;15981;43.292;-2.888;2023-03-14T04:28:18;5.13;;;2.05;;
28848;SDS011;15981;43.292;-2.888;2023-03-14T04:30:44;5.23;;;1.77;;
28848;SDS011;15981;43.292;-2.888;2023-03-14T04:33:10;3.60;;;1.40;;
28848;SDS011;15981;43.292;-2.888;2023-03-14T04:35:37;6.90;;;2.15;;
28848;SDS011;15981;43.292;-2.888;2023-03-14T04:38:03;6.00;;;2.03;;
28848;SDS011;15981;43.292;-2.888;2023-03-14T04:40:29;4.18;;;1.98;;
28848;SDS011;15981;43.292;-2.888;2023-03-14T04:42:55;6.32;;;1.75;;
28848;SDS011;15981;43.292;-2.888;2023-03-14T04:45:20;5.70;;;1.70;;
28848;SDS011;15981;43.292;-2.888;2023-03-14T04:47:46;7.63;;;1.77;;
28848;SDS011;15981;43.292;-2.888;2023-03-14T04:50:12;5.30;;;2.00;;
28848;SDS011;15981;43.292;-2.888;2023-03-14T04:52:37;5.97;;;2.00;;
28848;SDS011;15981;43.292;-2.888;2023-03-14T04:55:03;5.07;;;1.55;;
28848;SDS011;15981;43.292;-2.888;2023-03-14T04:57:29;4.13;;;1.70;;
28848;SDS011;15981;43.292;-2.888;2023-03-14T04:59:55;6.77;;;1.67;;
28848;SDS011;15981;43.292;-2.888;2023-03-14T05:02:20;7.07;;;2.13;;
28848;SDS011;15981;43.292;-2.888;2023-03-14T05:04:46;3.55;;;1.50;;
28848;SDS011;15981;43.292;-2.888;2023-03-14T05:07:12;4.37;;;1.47;;
28848;SDS011;15981;43.292;-2.888;2023-03-14T05:09:37;5.35;;;1.80;;
28848;SDS011;15981;43.292;-2.888;2023-03-14T05:12:03;2.60;;;1.33;;
28848;SDS011;15981;43.292;-2.888;2023-03-14T05:14:30;3.53;;;1.58;;
28848;SDS011;15981;43.292;-2.888;2023-03-14T05:16:55;6.70;;;1.50;;
28848;SDS011;15981;43.292;-2.888;2023-03-14T05:19:21;4.87;;;2.10;;
28848;SDS011;15981;43.292;-2.888;2023-03-14T05:21:47;5.57;;;1.70;;
28848;SDS011;15981;43.292;-2.888;2023-03-14T05:24:12;4.13;;;1.80;;
28848;SDS011;15981;43.292;-2.888;2023-03-14T05:26:38;6.87;;;1.63;;
28848;SDS011;15981;43.292;-2.888;2023-03-14T05:29:04;4.53;;;1.80;;
28848;SDS011;15981;43.292;-2.888;2023-03-14T05:31:30;5.33;;;1.87;;
28848;SDS011;15981;43.292;-2.888;2023-03-14T05:33:55;5.45;;;2.08;;
28848;SDS011;15981;43.292;-2.888;2023-03-14T05:36:21;5.85;;;1.90;;
28848;SDS011;15981;43.292;-2.888;2023-03-14T05:38:47;4.20;;;1.42;;
28848;SDS011;15981;43.292;-2.888;2023-03-14T05:41:13;4.40;;;1.80;;
28848;SDS011;15981;43.292;-2.888;2023-03-14T05:43:38;3.63;;;1.55;;
28848;SDS011;15981;43.292;-2.888;2023-03-14T05:46:04;3.30;;;1.42;;
28848;SDS011;15981;43.292;-2.888;2023-03-14T05:48:30;4.78;;;1.63;;
28848;SDS011;15981;43.292;-2.888;2023-03-14T05:50:56;4.57;;;1.90;;
28848;SDS011;15981;43.292;-2.888;2023-03-14T05:53:22;4.53;;;2.00;;
28848;SDS011;15981;43.292;-2.888;2023-03-14T05:55:50;4.57;;;1.70;;
28848;SDS011;15981;43.292;-2.888;2023-03-14T05:58:16;5.05;;;1.80;;
28848;SDS011;15981;43.292;-2.888;2023-03-14T06:00:42;3.47;;;1.47;;
28848;SDS011;15981;43.292;-2.888;2023-03-14T06:03:08;4.88;;;1.70;;
28848;SDS011;15981;43.292;-2.888;2023-03-14T06:05:33;3.40;;;1.43;;
28848;SDS011;15981;43.292;-2.888;2023-03-14T06:07:59;4.77;;;1.87;;
28848;SDS011;15981;43.292;-2.888;2023-03-14T06:10:25;4.75;;;1.80;;
28848;SDS011;15981;43.292;-2.888;2023-03-14T06:12:50;3.13;;;1.47;;
28848;SDS011;15981;43.292;-2.888;2023-03-14T06:15:16;4.03;;;1.50;;
28848;SDS011;15981;43.292;-2.888;2023-03-14T06:17:42;8.88;;;1.75;;
28848;SDS011;15981;43.292;-2.888;2023-03-14T06:20:08;3.23;;;1.63;;
28848;SDS011;15981;43.292;-2.888;2023-03-14T06:22:34;3.60;;;1.40;;
28848;SDS011;15981;43.292;-2.888;2023-03-14T06:24:59;5.60;;;1.67;;
28848;SDS011;15981;43.292;-2.888;2023-03-14T06:27:25;4.75;;;1.65;;
28848;SDS011;15981;43.292;-2.888;2023-03-14T06:29:51;5.47;;;1.63;;
28848;SDS011;15981;43.292;-2.888;2023-03-14T06:32:16;4.57;;;1.47;;
28848;SDS011;15981;43.292;-2.888;2023-03-14T06:34:43;4.60;;;1.70;;
28848;SDS011;15981;43.292;-2.888;2023-03-14T06:37:09;3.30;;;1.48;;
28848;SDS011;15981;43.292;-2.888;2023-03-14T06:39:35;3.83;;;1.47;;
28848;SDS011;15981;43.292;-2.888;2023-03-14T06:42:00;3.60;;;1.80;;
28848;SDS011;15981;43.292;-2.888;2023-03-14T06:44:26;4.50;;;2.13;;
28848;SDS011;15981;43.292;-2.888;2023-03-14T06:46:52;4.90;;;1.50;;
28848;SDS011;15981;43.292;-2.888;2023-03-14T06:49:17;5.47;;;1.80;;
28848;SDS011;15981;43.292;-2.888;2023-03-14T06:51:43;5.00;;;1.43;;
28848;SDS011;15981;43.292;-2.888;2023-03-14T06:54:09;5.43;;;1.83;;
28848;SDS011;15981;43.292;-2.888;2023-03-14T06:56:34;5.38;;;1.90;;
28848;SDS011;15981;43.292;-2.888;2023-03-14T06:59:00;4.50;;;1.63;;
28848;SDS011;15981;43.292;-2.888;2023-03-14T07:01:27;5.97;;;2.03;;
28848;SDS011;15981;43.292;-2.888;2023-03-14T07:03:53;5.18;;;1.40;;
28848;SDS011;15981;43.292;-2.888;2023-03-14T07:06:22;4.70;;;1.60;;
28848;SDS011;15981;43.292;-2.888;2023-03-14T07:08:47;5.30;;;1.93;;
28848;SDS011;15981;43.292;-2.888;2023-03-14T07:11:13;6.43;;;1.83;;
28848;SDS011;15981;43.292;-2.888;2023-03-14T07:13:39;6.57;;;2.20;;
28848;SDS011;15981;43.292;-2.888;2023-03-14T07:16:05;42.17;;;13.88;;
28848;SDS011;15981;43.292;-2.888;2023-03-14T07:18:31;49.97;;;15.52;;
28848;SDS011;15981;43.292;-2.888;2023-03-14T07:20:57;29.77;;;9.33;;
28848;SDS011;15981;43.292;-2.888;2023-03-14T07:23:23;30.05;;;9.38;;
28848;SDS011;15981;43.292;-2.888;2023-03-14T07:25:48;20.52;;;7.15;;
28848;SDS011;15981;43.292;-2.888;2023-03-14T07:28:14;24.58;;;7.03;;
28848;SDS011;15981;43.292;-2.888;2023-03-14T07:30:40;18.17;;;5.50;;
28848;SDS011;15981;43.292;-2.888;2023-03-14T07:33:05;17.80;;;5.25;;
28848;SDS011;15981;43.292;-2.888;2023-03-14T07:35:31;15.83;;;5.20;;
28848;SDS011;15981;43.292;-2.888;2023-03-14T07:37:57;17.42;;;5.65;;
28848;SDS011;15981;43.292;-2.888;2023-03-14T07:40:22;15.35;;;5.10;;
28848;SDS011;15981;43.292;-2.888;2023-03-14T07:42:48;15.90;;;4.83;;
28848;SDS011;15981;43.292;-2.888;2023-03-14T07:45:15;11.80;;;4.43;;
28848;SDS011;15981;43.292;-2.888;2023-03-14T07:47:40;13.60;;;3.73;;
28848;SDS011;15981;43.292;-2.888;2023-03-14T07:50:06;12.80;;;4.50;;
28848;SDS011;15981;43.292;-2.888;2023-03-14T07:52:32;8.35;;;3.63;;
28848;SDS011;15981;43.292;-2.888;2023-03-14T07:54:58;13.68;;;4.32;;
28848;SDS011;15981;43.292;-2.888;2023-03-14T07:57:24;9.93;;;3.37;;
28848;SDS011;15981;43.292;-2.888;2023-03-14T07:59:49;12.25;;;4.20;;
28848;SDS011;15981;43.292;-2.888;2023-03-14T08:02:15;14.63;;;4.75;;
28848;SDS011;15981;43.292;-2.888;2023-03-14T08:04:41;8.43;;;4.55;;
28848;SDS011;15981;43.292;-2.888;2023-03-14T08:07:07;10.68;;;4.68;;
28848;SDS011;15981;43.292;-2.888;2023-03-14T08:09:33;13.03;;;4.10;;
28848;SDS011;15981;43.292;-2.888;2023-03-14T08:11:59;8.25;;;3.65;;
28848;SDS011;15981;43.292;-2.888;2023-03-14T08:14:25;9.90;;;3.95;;
28848;SDS011;15981;43.292;-2.888;2023-03-14T08:16:51;7.95;;;3.65;;
28848;SDS011;15981;43.292;-2.888;2023-03-14T08:19:16;10.18;;;3.92;;
28848;SDS011;15981;43.292;-2.888;2023-03-14T08:21:42;7.50;;;3.30;;
28848;SDS011;15981;43.292;-2.888;2023-03-14T08:24:08;11.10;;;3.65;;
28848;SDS011;15981;43.292;-2.888;2023-03-14T08:26:34;9.75;;;3.58;;
28848;SDS011;15981;43.292;-2.888;2023-03-14T08:29:00;9.93;;;3.70;;
28848;SDS011;15981;43.292;-2.888;2023-03-14T08:31:26;9.87;;;3.80;;
28848;SDS011;15981;43.292;-2.888;2023-03-14T08:33:52;7.95;;;3.97;;
28848;SDS011;15981;43.292;-2.888;2023-03-14T08:36:19;8.07;;;3.78;;
28848;SDS011;15981;43.292;-2.888;2023-03-14T08:38:45;6.80;;;3.70;;
28848;SDS011;15981;43.292;-2.888;2023-03-14T08:41:10;6.43;;;3.47;;
28848;SDS011;15981;43.292;-2.888;2023-03-14T08:43:36;9.88;;;3.90;;
28848;SDS011;15981;43.292;-2.888;2023-03-14T08:46:02;8.90;;;3.60;;
28848;SDS011;15981;43.292;-2.888;2023-03-14T08:48:28;8.97;;;3.53;;
28848;SDS011;15981;43.292;-2.888;2023-03-14T08:51:04;7.88;;;3.05;;
28848;SDS011;15981;43.292;-2.888;2023-03-14T08:53:30;9.63;;;3.08;;
28848;SDS011;15981;43.292;-2.888;2023-03-14T08:55:56;7.00;;;3.00;;
28848;SDS011;15981;43.292;-2.888;2023-03-14T08:58:22;8.35;;;2.20;;
28848;SDS011;15981;43.292;-2.888;2023-03-14T09:00:49;5.65;;;1.80;;
28848;SDS011;15981;43.292;-2.888;2023-03-14T09:03:15;6.20;;;1.90;;
28848;SDS011;15981;43.292;-2.888;2023-03-14T09:05:41;5.22;;;1.55;;
28848;SDS011;15981;43.292;-2.888;2023-03-14T09:08:06;4.23;;;1.63;;
28848;SDS011;15981;43.292;-2.888;2023-03-14T09:10:32;4.32;;;1.65;;
28848;SDS011;15981;43.292;-2.888;2023-03-14T09:12:58;4.93;;;1.63;;
28848;SDS011;15981;43.292;-2.888;2023-03-14T09:15:24;4.73;;;1.73;;
28848;SDS011;15981;43.292;-2.888;2023-03-14T09:17:50;4.63;;;1.60;;
28848;SDS011;15981;43.292;-2.888;2023-03-14T09:20:15;3.83;;;1.70;;
28848;SDS011;15981;43.292;-2.888;2023-03-14T09:22:41;3.90;;;1.83;;
28848;SDS011;15981;43.292;-2.888;2023-03-14T09:25:07;5.40;;;1.60;;
28848;SDS011;15981;43.292;-2.888;2023-03-14T09:27:36;3.33;;;1.50;;
28848;SDS011;15981;43.292;-2.888;2023-03-14T09:30:02;3.22;;;1.23;;
28848;SDS011;15981;43.292;-2.888;2023-03-14T09:32:28;5.72;;;1.30;;
28848;SDS011;15981;43.292;-2.888;2023-03-14T09:34:53;5.15;;;1.70;;
28848;SDS011;15981;43.292;-2.888;2023-03-14T09:37:19;3.80;;;1.13;;
28848;SDS011;15981;43.292;-2.888;2023-03-14T09:39:46;2.50;;;1.20;;
28848;SDS011;15981;43.292;-2.888;2023-03-14T09:42:16;4.55;;;1.67;;
28848;SDS011;15981;43.292;-2.888;2023-03-14T09:45:02;2.22;;;1.10;;
28848;SDS011;15981;43.292;-2.888;2023-03-14T09:47:28;5.32;;;1.52;;
28848;SDS011;15981;43.292;-2.888;2023-03-14T09:49:54;3.97;;;1.40;;
28848;SDS011;15981;43.292;-2.888;2023-03-14T09:54:47;2.80;;;1.00;;
28848;SDS011;15981;43.292;-2.888;2023-03-14T09:57:20;4.40;;;1.20;;
28848;SDS011;15981;43.292;-2.888;2023-03-14T09:59:47;2.75;;;1.00;;
28848;SDS011;15981;43.292;-2.888;2023-03-14T10:02:15;2.67;;;1.00;;
28848;SDS011;15981;43.292;-2.888;2023-03-14T10:04:43;4.22;;;1.23;;
28848;SDS011;15981;43.292;-2.888;2023-03-14T10:07:12;4.18;;;1.25;;
28848;SDS011;15981;43.292;-2.888;2023-03-14T10:09:40;4.28;;;1.48;;
28848;SDS011;15981;43.292;-2.888;2023-03-14T10:12:07;3.77;;;1.43;;
28848;SDS011;15981;43.292;-2.888;2023-03-14T10:14:37;5.43;;;1.30;;
28848;SDS011;15981;43.292;-2.888;2023-03-14T10:17:09;2.07;;;1.10;;
28848;SDS011;15981;43.292;-2.888;2023-03-14T10:19:35;2.70;;;1.20;;
28848;SDS011;15981;43.292;-2.888;2023-03-14T10:22:03;3.28;;;1.65;;
28848;SDS011;15981;43.292;-2.888;2023-03-14T10:24:30;3.08;;;1.40;;
28848;SDS011;15981;43.292;-2.888;2023-03-14T10:27:00;4.03;;;1.30;;
28848;SDS011;15981;43.292;-2.888;2023-03-14T10:29:28;3.33;;;1.58;;
28848;SDS011;15981;43.292;-2.888;2023-03-14T10:31:56;5.30;;;1.67;;
28848;SDS011;15981;43.292;-2.888;2023-03-14T10:34:28;3.75;;;1.25;;
28848;SDS011;15981;43.292;-2.888;2023-03-14T10:37:21;4.38;;;1.30;;
28848;SDS011;15981;43.292;-2.888;2023-03-14T10:39:50;6.03;;;1.90;;
28848;SDS011;15981;43.292;-2.888;2023-03-14T10:44:42;5.82;;;2.50;;
28848;SDS011;15981;43.292;-2.888;2023-03-14T10:47:12;4.47;;;1.90;;
28848;SDS011;15981;43.292;-2.888;2023-03-14T10:49:40;6.55;;;2.72;;
28848;SDS011;15981;43.292;-2.888;2023-03-14T10:52:13;6.00;;;2.22;;
28848;SDS011;15981;43.292;-2.888;2023-03-14T10:54:39;6.15;;;2.40;;
28848;SDS011;15981;43.292;-2.888;2023-03-14T10:57:05;4.63;;;2.17;;
28848;SDS011;15981;43.292;-2.888;2023-03-14T10:59:35;5.13;;;1.90;;
28848;SDS011;15981;43.292;-2.888;2023-03-14T11:07:27;6.20;;;2.50;;
28848;SDS011;15981;43.292;-2.888;2023-03-14T11:10:00;3.43;;;1.60;;
28848;SDS011;15981;43.292;-2.888;2023-03-14T11:15:09;3.45;;;1.70;;
28848;SDS011;15981;43.292;-2.888;2023-03-14T11:27:42;4.78;;;1.77;;
28848;SDS011;15981;43.292;-2.888;2023-03-14T11:30:23;5.22;;;1.70;;
28848;SDS011;15981;43.292;-2.888;2023-03-14T11:32:56;20.60;;;10.03;;
28848;SDS011;15981;43.292;-2.888;2023-03-14T11:35:24;55.95;;;29.77;;
28848;SDS011;15981;43.292;-2.888;2023-03-14T11:37:52;90.53;;;50.08;;
28848;SDS011;15981;43.292;-2.888;2023-03-14T11:40:20;94.47;;;50.67;;
28848;SDS011;15981;43.292;-2.888;2023-03-14T11:42:53;92.15;;;50.10;;
28848;SDS011;15981;43.292;-2.888;2023-03-14T11:45:22;88.30;;;48.10;;
28848;SDS011;15981;43.292;-2.888;2023-03-14T11:47:53;75.43;;;40.07;;
28848;SDS011;15981;43.292;-2.888;2023-03-14T11:50:21;85.25;;;46.33;;
28848;SDS011;15981;43.292;-2.888;2023-03-14T11:52:55;83.68;;;45.80;;
28848;SDS011;15981;43.292;-2.888;2023-03-14T11:55:42;77.47;;;40.40;;
28848;SDS011;15981;43.292;-2.888;2023-03-14T11:58:16;67.85;;;35.45;;
28848;SDS011;15981;43.292;-2.888;2023-03-14T12:00:43;82.35;;;44.08;;
28848;SDS011;15981;43.292;-2.888;2023-03-14T12:08:25;59.75;;;30.00;;
28848;SDS011;15981;43.292;-2.888;2023-03-14T12:10:54;65.40;;;35.97;;
28848;SDS011;15981;43.292;-2.888;2023-03-14T12:13:21;76.15;;;44.60;;
28848;SDS011;15981;43.292;-2.888;2023-03-14T12:15:48;87.63;;;50.35;;
28848;SDS011;15981;43.292;-2.888;2023-03-14T12:18:18;75.05;;;45.15;;
28848;SDS011;15981;43.292;-2.888;2023-03-14T12:20:50;93.95;;;55.58;;
28848;SDS011;15981;43.292;-2.888;2023-03-14T12:23:16;88.13;;;55.67;;
28848;SDS011;15981;43.292;-2.888;2023-03-14T12:25:42;105.40;;;64.00;;
28848;SDS011;15981;43.292;-2.888;2023-03-14T12:28:21;171.90;;;95.70;;
28848;SDS011;15981;43.292;-2.888;2023-03-14T12:30:47;207.68;;;118.68;;
28848;SDS011;15981;43.292;-2.888;2023-03-14T12:33:29;213.77;;;120.05;;
28848;SDS011;15981;43.292;-2.888;2023-03-14T12:36:02;200.90;;;110.88;;
28848;SDS011;15981;43.292;-2.888;2023-03-14T12:38:37;149.25;;;83.90;;
28848;SDS011;15981;43.292;-2.888;2023-03-14T12:41:24;142.45;;;77.95;;
28848;SDS011;15981;43.292;-2.888;2023-03-14T12:43:51;126.10;;;69.45;;
28848;SDS011;15981;43.292;-2.888;2023-03-14T12:48:44;104.07;;;57.63;;
28848;SDS011;15981;43.292;-2.888;2023-03-14T12:51:14;109.53;;;59.85;;
28848;SDS011;15981;43.292;-2.888;2023-03-14T13:01:31;79.30;;;44.15;;
28848;SDS011;15981;43.292;-2.888;2023-03-14T13:04:02;81.35;;;45.92;;
28848;SDS011;15981;43.292;-2.888;2023-03-14T13:06:48;77.45;;;43.50;;
28848;SDS011;15981;43.292;-2.888;2023-03-14T13:12:00;78.15;;;43.13;;
28848;SDS011;15981;43.292;-2.888;2023-03-14T13:14:30;67.17;;;36.53;;
28848;SDS011;15981;43.292;-2.888;2023-03-14T13:16:59;65.35;;;38.60;;
28848;SDS011;15981;43.292;-2.888;2023-03-14T13:19:25;69.72;;;37.70;;
28848;SDS011;15981;43.292;-2.888;2023-03-14T13:21:56;60.13;;;34.45;;
28848;SDS011;15981;43.292;-2.888;2023-03-14T13:24:22;64.78;;;36.45;;
28848;SDS011;15981;43.292;-2.888;2023-03-14T13:26:49;55.17;;;32.03;;
28848;SDS011;15981;43.292;-2.888;2023-03-14T13:31:43;60.08;;;33.67;;
28848;SDS011;15981;43.292;-2.888;2023-03-14T13:34:10;55.55;;;30.92;;
28848;SDS011;15981;43.292;-2.888;2023-03-14T13:36:37;48.05;;;28.05;;
28848;SDS011;15981;43.292;-2.888;2023-03-14T13:39:04;53.58;;;27.23;;
28848;SDS011;15981;43.292;-2.888;2023-03-14T13:41:31;43.17;;;24.73;;
28848;SDS011;15981;43.292;-2.888;2023-03-14T13:44:02;44.70;;;25.10;;
28848;SDS011;15981;43.292;-2.888;2023-03-14T13:46:28;39.13;;;21.80;;
28848;SDS011;15981;43.292;-2.888;2023-03-14T13:48:55;44.05;;;26.10;;
28848;SDS011;15981;43.292;-2.888;2023-03-14T13:51:21;39.10;;;21.95;;
28848;SDS011;15981;43.292;-2.888;2023-03-14T13:53:51;37.88;;;22.42;;
28848;SDS011;15981;43.292;-2.888;2023-03-14T13:56:19;37.85;;;19.17;;
28848;SDS011;15981;43.292;-2.888;2023-03-14T13:58:45;35.92;;;19.90;;
28848;SDS011;15981;43.292;-2.888;2023-03-14T14:03:43;34.17;;;18.92;;
28848;SDS011;15981;43.292;-2.888;2023-03-14T14:08:56;32.43;;;18.33;;
28848;SDS011;15981;43.292;-2.888;2023-03-14T14:11:34;28.98;;;15.95;;
28848;SDS011;15981;43.292;-2.888;2023-03-14T14:14:00;32.42;;;15.65;;
28848;SDS011;15981;43.292;-2.888;2023-03-14T14:16:26;31.73;;;16.95;;
28848;SDS011;15981;43.292;-2.888;2023-03-14T14:18:54;29.63;;;15.83;;
28848;SDS011;15981;43.292;-2.888;2023-03-14T14:21:21;27.05;;;15.13;;
28848;SDS011;15981;43.292;-2.888;2023-03-14T14:23:47;26.25;;;13.50;;
28848;SDS011;15981;43.292;-2.888;2023-03-14T14:26:17;22.55;;;12.55;;
28848;SDS011;15981;43.292;-2.888;2023-03-14T14:28:43;25.60;;;14.32;;
28848;SDS011;15981;43.292;-2.888;2023-03-14T14:33:41;23.92;;;12.48;;
28848;SDS011;15981;43.292;-2.888;2023-03-14T14:36:24;22.58;;;12.93;;
28848;SDS011;15981;43.292;-2.888;2023-03-14T14:38:51;21.35;;;12.52;;
28848;SDS011;15981;43.292;-2.888;2023-03-14T14:41:18;20.65;;;11.73;;
28848;SDS011;15981;43.292;-2.888;2023-03-14T14:43:43;23.33;;;11.40;;
28848;SDS011;15981;43.292;-2.888;2023-03-14T14:46:09;18.90;;;10.40;;
28848;SDS011;15981;43.292;-2.888;2023-03-14T14:48:36;18.30;;;9.75;;
28848;SDS011;15981;43.292;-2.888;2023-03-14T14:51:03;19.75;;;10.20;;
28848;SDS011;15981;43.292;-2.888;2023-03-14T14:53:30;15.17;;;8.30;;
28848;SDS011;15981;43.292;-2.888;2023-03-14T14:55:57;13.80;;;8.07;;
28848;SDS011;15981;43.292;-2.888;2023-03-14T14:58:25;15.70;;;8.23;;
28848;SDS011;15981;43.292;-2.888;2023-03-14T15:00:53;16.38;;;8.00;;
28848;SDS011;15981;43.292;-2.888;2023-03-14T15:03:19;15.88;;;7.95;;
28848;SDS011;15981;43.292;-2.888;2023-03-14T15:05:45;16.48;;;8.63;;
28848;SDS011;15981;43.292;-2.888;2023-03-14T15:08:11;15.20;;;7.80;;
28848;SDS011;15981;43.292;-2.888;2023-03-14T15:10:37;15.05;;;8.60;;
28848;SDS011;15981;43.292;-2.888;2023-03-14T15:13:03;14.00;;;7.97;;
28848;SDS011;15981;43.292;-2.888;2023-03-14T15:15:29;13.80;;;7.87;;
28848;SDS011;15981;43.292;-2.888;2023-03-14T15:17:54;14.18;;;7.32;;
28848;SDS011;15981;43.292;-2.888;2023-03-14T15:20:20;14.35;;;6.50;;
28848;SDS011;15981;43.292;-2.888;2023-03-14T15:22:49;11.15;;;6.63;;
28848;SDS011;15981;43.292;-2.888;2023-03-14T15:25:15;11.98;;;6.50;;
28848;SDS011;15981;43.292;-2.888;2023-03-14T15:27:40;11.03;;;6.20;;